KNQI/NQI METAR and TAF weather

Enter ICAO airport designator
Station Type Date Time Source
KNQI METAR 2019/05/26 22:56 UTC NOAA

KNQI 262256Z 12016G22KT 10SM FEW040 SCT250 31/21 A2992 RMK AO2 PK WND 13026/2203 SLP130 T03060211 $


Station Type Date Time Source
KNQI Decoded METAR 2019/05/26 22:56 UTC NOAA

KINGSVILLE NAS, TX, United States (KNQI) 27-50N 097-81W 15M
May 26, 2019 - 06:56 PM EDT / 2019.05.26 2256 UTC
Wind: from the ESE (120 degrees) at 18 MPH (16 KT) gusting to 25 MPH (22 KT):0
Visibility: 10 mile(s):0
Sky conditions: partly cloudy
Temperature: 87.1 F (30.6 C)
Dew Point: 70.0 F (21.1 C)
Relative Humidity: 56%
Pressure (altimeter): 29.92 in. Hg (1013 hPa)
ob: KNQI 262256Z 12016G22KT 10SM FEW040 SCT250 31/21 A2992 RMK AO2 PK WND 13026/2203 SLP130 T03060211
cycle: 23

Station Type Date Time Source
KNQI TAF 2019/05/26 23:58 UTC NOAA

TAF KNQI 2623/2723 13015G22KT 9999 SCT010 SCT030 QNH2980INS
TEMPO 2710/2716 BKN020 AUTOMATED SENSOR METWATCH 2623 TIL 2812 T24/2712Z T35/2719Z FN00205

Example: see airport list